createdAt,value
2019-02-22T00:00:36.561Z,99276.52
2019-02-22T00:03:05.851Z,99271.58
2019-02-22T00:05:35.225Z,99275.50
2019-02-22T00:08:04.507Z,99276.77
2019-02-22T00:10:33.768Z,99279.69
2019-02-22T00:13:03.106Z,99281.60
2019-02-22T00:15:32.403Z,99280.48
2019-02-22T00:18:01.739Z,99275.34
2019-02-22T00:20:31.040Z,99276.52
2019-02-22T00:23:00.336Z,99276.91
2019-02-22T00:25:29.678Z,99283.96
2019-02-22T00:27:59.002Z,99284.33
2019-02-22T00:30:28.312Z,99278.70
2019-02-22T00:32:57.688Z,99281.25
2019-02-22T00:35:27.043Z,99279.98
2019-02-22T00:37:56.296Z,99272.56
2019-02-22T00:40:25.608Z,99278.88
2019-02-22T00:42:54.907Z,99267.10
2019-02-22T00:45:24.206Z,99270.48
2019-02-22T00:47:53.860Z,99275.05
2019-02-22T00:50:23.415Z,99271.19
2019-02-22T00:52:54.096Z,99267.75
2019-02-22T00:55:23.375Z,99267.10
2019-02-22T00:57:52.713Z,99265.89
2019-02-22T01:00:22.422Z,99265.83
2019-02-22T01:02:52.697Z,99270.09
2019-02-22T01:05:22.049Z,99270.35
2019-02-22T01:07:51.331Z,99272.83
2019-02-22T01:10:30.677Z,99277.41
2019-02-22T01:12:51.708Z,99271.70
2019-02-22T01:15:22.229Z,99282.22
2019-02-22T01:17:51.504Z,99281.41
2019-02-22T01:20:20.788Z,99283.95
2019-02-22T01:22:51.564Z,99280.23
2019-02-22T01:25:20.833Z,99287.17
2019-02-22T01:27:50.137Z,99289.05
2019-02-22T01:30:19.425Z,99296.95
2019-02-22T01:32:48.921Z,99298.56
2019-02-22T01:35:18.176Z,99295.33
2019-02-22T01:37:47.474Z,99303.04
2019-02-22T01:40:16.734Z,99299.20
2019-02-22T01:42:46.074Z,99304.51
2019-02-22T01:45:15.397Z,99303.45
2019-02-22T01:47:44.673Z,99304.37
2019-02-22T01:50:21.840Z,99303.56
2019-02-22T01:52:51.397Z,99310.34
2019-02-22T01:55:20.793Z,99305.00
2019-02-22T01:57:50.088Z,99307.93
2019-02-22T02:00:19.363Z,99307.97
2019-02-22T02:02:48.644Z,99308.03
2019-02-22T02:05:17.960Z,99306.73
2019-02-22T02:07:47.267Z,99309.84
2019-02-22T02:10:16.623Z,99309.09
2019-02-22T02:12:45.868Z,99303.29
2019-02-22T02:15:15.245Z,99311.38
2019-02-22T02:17:44.549Z,99303.39
2019-02-22T02:20:13.858Z,99312.12
2019-02-22T02:22:44.923Z,99308.36
2019-02-22T02:25:14.297Z,99314.06
2019-02-22T02:27:43.844Z,99315.28
2019-02-22T02:30:13.235Z,99315.66
2019-02-22T02:32:42.489Z,99317.59
2019-02-22T02:35:11.772Z,99315.67
2019-02-22T02:37:41.038Z,99321.98
2019-02-22T02:40:10.317Z,99317.20
2019-02-22T02:42:39.567Z,99316.91
2019-02-22T02:45:09.068Z,99312.15
2019-02-22T02:47:38.345Z,99314.98
2019-02-22T02:50:07.810Z,99317.41
2019-02-22T02:52:37.093Z,99321.23
2019-02-22T02:55:28.922Z,99320.98
2019-02-22T02:57:58.386Z,99321.85
2019-02-22T03:00:27.638Z,99331.23
2019-02-22T03:02:56.891Z,99328.62
2019-02-22T03:05:40.498Z,99334.91
2019-02-22T03:08:09.768Z,99334.20
2019-02-22T03:10:39.956Z,99329.56
2019-02-22T03:13:09.209Z,99333.29
2019-02-22T03:15:38.506Z,99322.66
2019-02-22T03:18:07.763Z,99334.50
2019-02-22T03:20:37.020Z,99342.47
2019-02-22T03:23:06.288Z,99342.77
2019-02-22T03:25:35.539Z,99351.91
2019-02-22T03:28:04.817Z,99347.78
2019-02-22T03:30:34.093Z,99349.88
2019-02-22T03:33:03.349Z,99350.48
2019-02-22T03:35:32.617Z,99350.00
2019-02-22T03:38:01.876Z,99353.13
2019-02-22T03:40:31.155Z,99353.02
2019-02-22T03:43:00.403Z,99357.16
2019-02-22T03:45:29.679Z,99357.22
2019-02-22T03:47:58.966Z,99357.83
2019-02-22T03:50:28.214Z,99360.89
2019-02-22T03:53:31.874Z,99359.17
2019-02-22T03:56:01.471Z,99356.85
2019-02-22T03:58:30.746Z,99357.51
2019-02-22T04:01:00.044Z,99349.09
2019-02-22T04:03:29.588Z,99351.27
2019-02-22T04:05:58.852Z,99354.73
2019-02-22T04:08:28.116Z,99356.97
2019-02-22T04:10:57.414Z,99363.27
2019-02-22T04:13:26.707Z,99359.44
2019-02-22T04:15:55.957Z,99362.80
2019-02-22T04:18:25.223Z,99370.33
2019-02-22T04:20:54.486Z,99360.84
2019-02-22T04:23:23.727Z,99364.88
2019-02-22T04:25:53.000Z,99362.92
2019-02-22T04:28:22.272Z,99370.66
2019-02-22T04:30:51.568Z,99373.05
2019-02-22T04:33:20.869Z,99370.98
2019-02-22T04:35:50.133Z,99372.18
2019-02-22T04:38:19.414Z,99375.17
2019-02-22T04:40:48.685Z,99383.86
2019-02-22T04:43:17.988Z,99377.48
2019-02-22T04:45:47.310Z,99384.45
2019-02-22T04:48:16.567Z,99381.63
2019-02-22T04:50:46.148Z,99384.61
2019-02-22T04:53:15.418Z,99387.48
2019-02-22T04:55:44.726Z,99384.56
2019-02-22T04:58:14.008Z,99383.95
2019-02-22T05:00:43.269Z,99382.59
2019-02-22T05:03:12.538Z,99382.89
2019-02-22T05:05:41.786Z,99379.36
2019-02-22T05:08:11.067Z,99387.62
2019-02-22T05:10:40.329Z,99383.80
2019-02-22T05:13:09.580Z,99395.00
2019-02-22T05:15:38.888Z,99400.70
2019-02-22T05:18:08.148Z,99409.38
2019-02-22T05:20:37.434Z,99405.49
2019-02-22T05:23:07.644Z,99412.09
2019-02-22T05:25:37.053Z,99411.25
2019-02-22T05:28:06.339Z,99407.09
2019-02-22T05:30:36.543Z,99421.97
2019-02-22T05:33:05.937Z,99425.42
2019-02-22T05:35:35.219Z,99420.87
2019-02-22T05:38:04.488Z,99427.42
2019-02-22T05:40:33.767Z,99430.37
2019-02-22T05:43:03.019Z,99427.38
2019-02-22T05:45:32.297Z,99427.32
2019-02-22T05:48:01.549Z,99431.42
2019-02-22T05:50:30.826Z,99434.98
2019-02-22T05:53:01.010Z,99439.93
2019-02-22T05:55:32.096Z,99439.60
2019-02-22T05:58:02.315Z,99436.45
2019-02-22T06:00:33.128Z,99452.53
2019-02-22T06:03:03.827Z,99449.41
2019-02-22T06:05:33.733Z,99450.50
2019-02-22T06:08:04.071Z,99452.36
2019-02-22T06:10:35.756Z,99449.02
2019-02-22T06:13:05.694Z,99449.94
2019-02-22T06:15:37.287Z,99460.20
2019-02-22T06:18:07.026Z,99466.70
2019-02-22T06:20:37.169Z,99463.33
2019-02-22T06:23:08.034Z,99467.58
2019-02-22T06:25:40.980Z,99472.11
2019-02-22T06:28:10.969Z,99488.03
2019-02-22T06:30:40.565Z,99482.84
2019-02-22T06:33:20.100Z,99491.38
2019-02-22T06:35:50.082Z,99491.64
2019-02-22T06:38:19.654Z,99488.16
2019-02-22T06:40:49.277Z,99494.75
2019-02-22T06:43:18.902Z,99499.39
2019-02-22T06:45:48.594Z,99486.92
2019-02-22T06:48:18.251Z,99490.24
2019-02-22T06:50:47.988Z,99500.24
2019-02-22T06:53:17.575Z,99496.61
2019-02-22T06:55:47.218Z,99498.53
2019-02-22T06:58:16.932Z,99500.49
2019-02-22T07:00:46.185Z,99503.77
2019-02-22T07:03:15.505Z,99512.47
2019-02-22T07:05:44.787Z,99512.77
2019-02-22T07:08:14.082Z,99515.18
2019-02-22T07:11:01.339Z,99525.47
2019-02-22T07:13:30.591Z,99527.30
2019-02-22T07:15:59.897Z,99535.50
2019-02-22T07:18:30.264Z,99539.17
2019-02-22T07:20:59.607Z,99537.98
2019-02-22T07:23:29.032Z,99543.02
2019-02-22T07:25:58.271Z,99550.19
2019-02-22T07:28:27.592Z,99544.55
2019-02-22T07:30:56.849Z,99546.26
2019-02-22T07:33:26.096Z,99551.45
2019-02-22T07:35:55.450Z,99555.03
2019-02-22T07:38:24.794Z,99557.98
2019-02-22T07:40:54.085Z,99562.80
2019-02-22T07:43:23.361Z,99567.16
2019-02-22T07:45:53.206Z,99567.69
2019-02-22T07:48:22.504Z,99569.44
2019-02-22T07:50:57.435Z,99577.72
2019-02-22T07:53:22.805Z,99583.55
2019-02-22T07:55:52.095Z,99587.16
2019-02-22T07:58:21.383Z,99584.53
2019-02-22T08:00:50.684Z,99585.16
2019-02-22T08:03:20.019Z,99593.14
2019-02-22T08:05:49.580Z,99601.42
2019-02-22T08:08:18.894Z,99598.32
2019-02-22T08:10:48.209Z,99604.14
2019-02-22T08:13:20.000Z,99595.97
2019-02-22T08:15:48.481Z,99595.54
2019-02-22T08:18:17.739Z,99610.58
2019-02-22T08:20:47.042Z,99597.60
2019-02-22T08:23:16.420Z,99600.88
2019-02-22T08:25:45.680Z,99595.33
2019-02-22T08:28:14.959Z,99603.69
2019-02-22T08:30:44.226Z,99599.95
2019-02-22T08:33:13.575Z,99610.27
2019-02-22T08:35:42.830Z,99610.31
2019-02-22T08:38:12.095Z,99613.17
2019-02-22T08:40:42.510Z,99611.09
2019-02-22T08:43:12.791Z,99615.52
2019-02-22T08:45:42.082Z,99624.64
2019-02-22T08:48:11.370Z,99630.45
2019-02-22T08:50:40.665Z,99631.27
2019-02-22T08:53:09.949Z,99635.43
2019-02-22T08:55:39.286Z,99640.14
2019-02-22T08:58:08.581Z,99632.66
2019-02-22T09:00:37.953Z,99641.02
2019-02-22T09:03:07.277Z,99636.84
2019-02-22T09:05:36.554Z,99640.78
2019-02-22T09:08:05.827Z,99645.46
2019-02-22T09:10:35.133Z,99647.60
2019-02-22T09:13:04.383Z,99659.65
2019-02-22T09:15:33.735Z,99664.19
2019-02-22T09:18:02.959Z,99665.64
2019-02-22T09:20:32.296Z,99662.66
2019-02-22T09:23:01.553Z,99671.27
2019-02-22T09:25:30.818Z,99668.87
2019-02-22T09:28:00.130Z,99674.23
2019-02-22T09:30:29.401Z,99676.55
2019-02-22T09:32:58.680Z,99683.03
2019-02-22T09:35:27.952Z,99677.23
2019-02-22T09:37:57.271Z,99681.16
2019-02-22T09:40:26.531Z,99689.03
2019-02-22T09:42:55.792Z,99694.40
2019-02-22T09:45:25.098Z,99694.16
2019-02-22T09:47:54.375Z,99693.59
2019-02-22T09:50:23.657Z,99693.27
2019-02-22T09:52:52.968Z,99701.18
2019-02-22T09:55:22.232Z,99708.19
2019-02-22T09:57:51.531Z,99709.53
2019-02-22T10:00:20.800Z,99712.48
2019-02-22T10:02:50.109Z,99716.56
2019-02-22T10:05:19.395Z,99718.11
2019-02-22T10:07:48.791Z,99719.98
2019-02-22T10:10:18.071Z,99716.77
2019-02-22T10:12:47.359Z,99720.16
2019-02-22T10:15:16.643Z,99718.02
2019-02-22T10:17:45.991Z,99713.63
2019-02-22T10:20:15.240Z,99723.23
2019-02-22T10:22:44.492Z,99725.88
2019-02-22T10:25:13.788Z,99722.41
2019-02-22T10:27:43.114Z,99728.63
2019-02-22T10:30:13.819Z,99731.84
2019-02-22T10:32:44.123Z,99735.89
2019-02-22T10:35:13.385Z,99747.38
2019-02-22T10:37:42.675Z,99744.80
2019-02-22T10:40:12.093Z,99747.10
2019-02-22T10:42:41.433Z,99750.02
2019-02-22T10:45:10.735Z,99760.46
2019-02-22T10:47:41.447Z,99761.10
2019-02-22T10:50:10.842Z,99762.59
2019-02-22T10:52:40.083Z,99768.95
2019-02-22T10:55:09.625Z,99772.41
2019-02-22T10:57:38.910Z,99774.33
2019-02-22T11:00:10.600Z,99774.45
2019-02-22T11:02:39.952Z,99778.93
2019-02-22T11:05:09.245Z,99781.56
2019-02-22T11:07:38.526Z,99782.48
2019-02-22T11:10:09.362Z,99792.10
2019-02-22T11:12:38.654Z,99780.30
2019-02-22T11:15:09.208Z,99783.09
2019-02-22T11:17:38.473Z,99785.45
2019-02-22T11:20:28.757Z,99787.52
2019-02-22T11:22:59.598Z,99789.19
2019-02-22T11:25:28.850Z,99783.54
2019-02-22T11:27:58.100Z,99786.41
2019-02-22T11:30:27.456Z,99788.31
2019-02-22T11:32:56.728Z,99786.94
2019-02-22T11:35:25.999Z,99785.89
2019-02-22T11:37:55.267Z,99788.55
2019-02-22T11:40:24.534Z,99800.23
2019-02-22T11:42:53.821Z,99797.01
2019-02-22T11:45:23.077Z,99798.13
2019-02-22T11:47:52.354Z,99801.00
2019-02-22T11:50:21.620Z,99803.59
2019-02-22T11:52:50.984Z,99807.44
2019-02-22T11:55:20.478Z,99806.89
2019-02-22T11:57:49.718Z,99809.16
2019-02-22T12:00:20.098Z,99813.20
2019-02-22T12:02:49.420Z,99802.98
2019-02-22T12:05:18.724Z,99806.57
2019-02-22T12:07:48.215Z,99810.22
2019-02-22T12:10:17.538Z,99805.78
2019-02-22T12:12:46.918Z,99807.95
2019-02-22T12:15:16.195Z,99799.12
2019-02-22T12:17:47.201Z,99799.62
2019-02-22T12:20:16.447Z,99803.84
2019-02-22T12:22:45.743Z,99801.25
2019-02-22T12:25:14.987Z,99804.45
2019-02-22T12:27:44.327Z,99812.17
2019-02-22T12:30:14.122Z,99816.20
2019-02-22T12:32:43.500Z,99814.64
2019-02-22T12:35:12.808Z,99820.13
2019-02-22T12:37:42.079Z,99820.36
2019-02-22T12:40:11.853Z,99825.09
2019-02-22T12:42:41.195Z,99824.97
2019-02-22T12:45:10.730Z,99825.47
2019-02-22T12:47:39.996Z,99828.70
2019-02-22T12:50:09.555Z,99822.12
2019-02-22T12:52:38.854Z,99818.63
2019-02-22T12:55:08.511Z,99824.09
2019-02-22T12:57:37.791Z,99829.69
2019-02-22T13:00:08.990Z,99829.55
2019-02-22T13:02:38.395Z,99832.64
2019-02-22T13:05:09.230Z,99835.36
2019-02-22T13:07:38.513Z,99840.26
2019-02-22T13:10:08.479Z,99846.59
2019-02-22T13:12:37.731Z,99852.92
2019-02-22T13:15:14.087Z,99854.64
2019-02-22T13:17:39.431Z,99850.99
2019-02-22T13:20:09.047Z,99856.50
2019-02-22T13:22:38.312Z,99853.90
2019-02-22T13:25:07.904Z,99870.38
2019-02-22T13:27:37.195Z,99870.27
2019-02-22T13:30:07.587Z,99869.80
2019-02-22T13:32:36.858Z,99875.73
2019-02-22T13:35:06.614Z,99882.31
2019-02-22T13:37:35.862Z,99885.27
2019-02-22T13:40:06.043Z,99881.66
2019-02-22T13:42:35.311Z,99885.41
2019-02-22T13:45:04.890Z,99889.85
2019-02-22T13:47:34.180Z,99886.33
2019-02-22T13:50:03.705Z,99896.41
2019-02-22T13:52:32.974Z,99889.68
2019-02-22T13:55:02.241Z,99893.44
2019-02-22T13:57:31.520Z,99894.86
2019-02-22T14:00:00.771Z,99901.89
2019-02-22T14:02:30.083Z,99899.72
2019-02-22T14:04:59.351Z,99900.28
2019-02-22T14:07:28.636Z,99907.09
2019-02-22T14:09:57.935Z,99906.86
2019-02-22T14:12:27.185Z,99906.56
2019-02-22T14:14:56.452Z,99903.65
2019-02-22T14:17:25.704Z,99914.25
2019-02-22T14:19:54.980Z,99912.80
2019-02-22T14:22:24.228Z,99920.31
2019-02-22T14:24:54.853Z,99928.56
2019-02-22T14:27:24.222Z,99926.62
2019-02-22T14:29:53.488Z,99927.60
2019-02-22T14:32:22.781Z,99925.02
2019-02-22T14:34:52.162Z,99921.10
2019-02-22T14:37:22.727Z,99928.52
2019-02-22T14:40:01.012Z,99923.86
2019-02-22T14:42:23.015Z,99919.28
2019-02-22T14:44:52.287Z,99932.77
2019-02-22T14:47:21.572Z,99928.80
2019-02-22T14:49:50.858Z,99938.23
2019-02-22T14:52:21.212Z,99937.83
2019-02-22T14:54:50.548Z,99938.69
2019-02-22T14:57:19.797Z,99945.11
2019-02-22T14:59:49.076Z,99945.24
2019-02-22T15:02:18.366Z,99945.88
2019-02-22T15:04:47.646Z,99949.84
2019-02-22T15:07:16.959Z,99954.94
2019-02-22T15:09:46.228Z,99946.63
2019-02-22T15:12:15.588Z,99942.25
2019-02-22T15:14:44.894Z,99944.31
2019-02-22T15:17:27.433Z,99945.16
2019-02-22T15:19:56.910Z,99949.82
2019-02-22T15:22:26.263Z,99942.78
2019-02-22T15:24:55.523Z,99947.84
2019-02-22T15:27:24.782Z,99948.73
2019-02-22T15:29:54.269Z,99950.02
2019-02-22T15:32:25.008Z,99945.41
2019-02-22T15:34:54.343Z,99952.20
2019-02-22T15:37:23.646Z,99953.52
2019-02-22T15:39:52.928Z,99960.00
2019-02-22T15:42:22.225Z,99960.70
2019-02-22T15:44:51.482Z,99953.63
2019-02-22T15:47:20.744Z,99967.39
2019-02-22T15:49:49.995Z,99966.16
2019-02-22T15:52:19.431Z,99971.92
2019-02-22T15:54:48.684Z,99972.64
2019-02-22T15:57:17.981Z,99969.19
2019-02-22T15:59:47.214Z,99972.77
2019-02-22T16:02:16.522Z,99977.46
2019-02-22T16:05:04.750Z,99978.09
2019-02-22T16:07:44.169Z,99978.91
2019-02-22T16:10:10.936Z,99981.26
2019-02-22T16:12:42.565Z,99978.66
2019-02-22T16:15:15.234Z,99980.00
2019-02-22T16:17:46.642Z,99986.77
2019-02-22T16:20:17.963Z,99987.69
2019-02-22T16:22:51.236Z,99994.03
2019-02-22T16:25:20.636Z,100002.02
2019-02-22T16:27:50.501Z,100000.66
2019-02-22T16:30:22.462Z,100009.27
2019-02-22T16:32:53.820Z,100012.57
2019-02-22T16:35:23.332Z,100005.95
2019-02-22T16:37:52.972Z,100018.33
2019-02-22T16:40:23.770Z,100021.84
2019-02-22T16:42:53.245Z,100027.17
2019-02-22T16:45:24.957Z,100029.16
2019-02-22T16:47:54.224Z,100027.09
2019-02-22T16:50:23.501Z,100028.72
2019-02-22T16:52:53.898Z,100027.53
2019-02-22T16:55:24.743Z,100046.74
2019-02-22T16:57:54.019Z,100034.45
2019-02-22T17:00:23.331Z,100046.22
2019-02-22T17:02:52.615Z,100040.82
2019-02-22T17:05:21.855Z,100048.47
2019-02-22T17:07:51.153Z,100057.09
2019-02-22T17:10:20.407Z,100057.86
2019-02-22T17:12:49.699Z,100058.21
2019-02-22T17:15:18.949Z,100058.34
2019-02-22T17:17:49.762Z,100059.44
2019-02-22T17:20:19.624Z,100066.22
2019-02-22T17:22:48.883Z,100072.95
2019-02-22T17:25:18.293Z,100074.11
2019-02-22T17:27:47.590Z,100079.16
2019-02-22T17:30:16.929Z,100078.66
2019-02-22T17:32:46.163Z,100079.75
2019-02-22T17:35:15.580Z,100096.20
2019-02-22T17:37:45.172Z,100081.67
2019-02-22T17:40:15.216Z,100092.15
2019-02-22T17:42:44.639Z,100094.90
2019-02-22T17:45:13.888Z,100093.91
2019-02-22T17:47:43.165Z,100093.67
2019-02-22T17:50:12.421Z,100092.97
2019-02-22T17:52:41.752Z,100092.41
2019-02-22T17:55:11.010Z,100087.62
2019-02-22T17:57:40.256Z,100089.81
2019-02-22T18:00:13.028Z,100084.65
2019-02-22T18:02:42.294Z,100091.77
2019-02-22T18:05:11.762Z,100093.41
2019-02-22T18:07:41.071Z,100099.17
2019-02-22T18:10:10.484Z,100112.71
2019-02-22T18:12:39.738Z,100117.11
2019-02-22T18:15:09.594Z,100118.47
2019-02-22T18:17:38.901Z,100127.45
2019-02-22T18:20:08.726Z,100118.25
2019-02-22T18:22:39.440Z,100127.98
2019-02-22T18:25:08.863Z,100125.58
2019-02-22T18:27:38.156Z,100136.21
2019-02-22T18:30:09.152Z,100147.34
2019-02-22T18:32:38.423Z,100154.13
2019-02-22T18:35:08.651Z,100156.32
2019-02-22T18:37:37.960Z,100160.94
2019-02-22T18:40:10.061Z,100165.56
2019-02-22T18:42:39.302Z,100165.29
2019-02-22T18:45:09.068Z,100172.34
2019-02-22T18:47:38.349Z,100173.97
2019-02-22T18:50:08.630Z,100185.08
2019-02-22T18:52:37.934Z,100171.51
2019-02-22T18:55:07.930Z,100177.73
2019-02-22T18:57:37.217Z,100185.33
2019-02-22T19:00:08.719Z,100185.28
2019-02-22T19:02:38.015Z,100193.16
2019-02-22T19:05:08.231Z,100197.19
2019-02-22T19:07:37.512Z,100201.00
2019-02-22T19:10:08.068Z,100210.47
2019-02-22T19:12:39.124Z,100208.86
2019-02-22T19:15:10.290Z,100214.33
2019-02-22T19:17:39.659Z,100212.58
2019-02-22T19:20:11.782Z,100205.53
2019-02-22T19:22:41.085Z,100209.28
2019-02-22T19:25:10.641Z,100213.42
2019-02-22T19:27:40.381Z,100219.64
2019-02-22T19:30:15.023Z,100224.74
2019-02-22T19:32:45.852Z,100231.78
2019-02-22T19:35:15.428Z,100222.52
2019-02-22T19:37:44.927Z,100223.34
2019-02-22T19:40:16.394Z,100233.61
2019-02-22T19:42:46.556Z,100237.09
2019-02-22T19:45:15.828Z,100246.52
2019-02-22T19:47:45.228Z,100246.56
2019-02-22T19:50:14.840Z,100250.30
2019-02-22T19:52:44.092Z,100250.63
2019-02-22T19:55:14.391Z,100250.81
2019-02-22T19:57:43.718Z,100260.48
2019-02-22T20:00:15.060Z,100260.05
2019-02-22T20:02:44.330Z,100254.34
2019-02-22T20:05:14.303Z,100265.22
2019-02-22T20:07:43.764Z,100263.87
2019-02-22T20:10:18.036Z,100268.70
2019-02-22T20:12:45.306Z,100260.77
2019-02-22T20:15:15.588Z,100266.92
2019-02-22T20:17:52.965Z,100268.04
2019-02-22T20:20:17.335Z,100269.02
2019-02-22T20:22:47.016Z,100271.82
2019-02-22T20:25:16.312Z,100271.54
2019-02-22T20:27:45.714Z,100271.73
2019-02-22T20:30:18.880Z,100279.27
2019-02-22T20:32:48.152Z,100278.48
2019-02-22T20:35:19.760Z,100283.33
2019-02-22T20:37:52.951Z,100288.52
2019-02-22T20:40:21.671Z,100282.41
2019-02-22T20:42:50.996Z,100286.77
2019-02-22T20:45:20.359Z,100283.77
2019-02-22T20:47:51.512Z,100290.12
2019-02-22T20:50:20.831Z,100287.95
2019-02-22T20:52:51.307Z,100290.03
2019-02-22T20:55:20.595Z,100282.89
2019-02-22T20:57:49.912Z,100283.84
2019-02-22T21:00:19.343Z,100287.17
2019-02-22T21:02:48.820Z,100298.31
2019-02-22T21:05:18.105Z,100299.31
2019-02-22T21:07:47.396Z,100297.68
2019-02-22T21:10:17.394Z,100307.02
2019-02-22T21:12:46.749Z,100305.13
2019-02-22T21:15:16.205Z,100306.31
2019-02-22T21:17:45.519Z,100307.59
2019-02-22T21:20:16.138Z,100312.71
2019-02-22T21:22:49.685Z,100312.92
2019-02-22T21:25:18.990Z,100322.24
2019-02-22T21:27:48.308Z,100328.76
2019-02-22T21:30:17.579Z,100332.31
2019-02-22T21:32:47.047Z,100327.79
2019-02-22T21:35:16.821Z,100330.81
2019-02-22T21:37:46.116Z,100341.67
2019-02-22T21:40:15.483Z,100342.17
2019-02-22T21:42:44.712Z,100351.55
2019-02-22T21:45:14.560Z,100352.49
2019-02-22T21:47:54.156Z,100351.88
2019-02-22T21:50:14.914Z,100350.65
2019-02-22T21:52:44.333Z,100353.11
2019-02-22T21:55:14.824Z,100363.63
2019-02-22T21:57:44.527Z,100356.47
2019-02-22T22:00:16.178Z,100362.23
2019-02-22T22:02:45.639Z,100367.43
2019-02-22T22:05:15.133Z,100357.61
2019-02-22T22:07:46.154Z,100352.63
2019-02-22T22:10:15.503Z,100349.58
2019-02-22T22:12:44.816Z,100354.48
2019-02-22T22:15:14.698Z,100346.78
2019-02-22T22:17:44.085Z,100344.52
2019-02-22T22:20:13.912Z,100340.47
2019-02-22T22:22:43.660Z,100342.94
2019-02-22T22:25:13.441Z,100355.27
2019-02-22T22:27:43.148Z,100352.63
2019-02-22T22:30:12.901Z,100359.42
2019-02-22T22:32:42.271Z,100357.93
2019-02-22T22:35:11.849Z,100361.12
2019-02-22T22:37:41.548Z,100379.14
2019-02-22T22:40:11.216Z,100377.94
2019-02-22T22:42:40.561Z,100380.44
2019-02-22T22:45:10.824Z,100380.20
2019-02-22T22:47:40.107Z,100386.13
2019-02-22T22:50:12.179Z,100379.23
2019-02-22T22:52:41.838Z,100377.36
2019-02-22T22:55:11.285Z,100370.45
2019-02-22T22:57:41.140Z,100372.86
2019-02-22T23:00:28.110Z,100369.84
2019-02-22T23:02:57.418Z,100365.44
2019-02-22T23:05:26.720Z,100364.12
2019-02-22T23:07:55.981Z,100362.00
2019-02-22T23:10:25.308Z,100358.14
2019-02-22T23:12:54.606Z,100363.52
2019-02-22T23:15:24.098Z,100365.60
2019-02-22T23:17:54.047Z,100370.16
2019-02-22T23:20:26.203Z,100370.99
2019-02-22T23:22:55.570Z,100375.34
2019-02-22T23:25:25.082Z,100388.43
2019-02-22T23:27:54.357Z,100386.72
2019-02-22T23:30:23.996Z,100395.15
2019-02-22T23:32:56.125Z,100395.20
2019-02-22T23:35:25.586Z,100399.34
2019-02-22T23:37:54.991Z,100399.15
2019-02-22T23:40:24.347Z,100395.00
2019-02-22T23:42:53.621Z,100387.13
2019-02-22T23:45:22.889Z,100391.62
2019-02-22T23:47:52.172Z,100387.48
2019-02-22T23:50:21.455Z,100389.85
2019-02-22T23:52:50.711Z,100399.78
2019-02-22T23:55:19.999Z,100405.65
2019-02-22T23:57:51.197Z,100407.66
